Terminal Aerodrome Forecast
Issued by NWS

Home | Current Version | Previous Version | Text Only | Print | Product List | Glossary On
Versions: 1 2 3 4 5 6 7 8 9 10 11 12 13 14 15 16 17
000
FTAK31 PAJN 300900 AAA
TAFAYA
TAF AMD
PAYA 300926Z 3009/0106 22010KT 6SM -SHRA SCT025 BKN035 OVC060
      TEMPO 3009/3013 22010G17KT 5SM -SHRA BR BKN025 OVC060
     FM301400 10005KT P6SM -SHRA SCT010 OVC035
     FM301800 VRB03KT P6SM VCSH SCT035 BKN050
     FM302100 34008KT P6SM SCT050 SCT070
      AMD LTD TO CLD VIS AND WIND TIL 301000=

USA.gov is the U.S. government's official web portal to all federal, state and local government web resources and services.